sensor_id;sensor_type;location;lat;lon;timestamp;P1;durP1;ratioP1;P2;durP2;ratioP2
49051;SDS011;34866;48.670;18.260;2023-05-10T00:01:00;6.35;;;2.83;;
49051;SDS011;34866;48.670;18.260;2023-05-10T00:03:25;8.18;;;3.30;;
49051;SDS011;34866;48.670;18.260;2023-05-10T00:05:57;5.47;;;2.33;;
49051;SDS011;34866;48.670;18.260;2023-05-10T00:08:23;4.18;;;2.08;;
49051;SDS011;34866;48.670;18.260;2023-05-10T00:11:05;5.35;;;2.67;;
49051;SDS011;34866;48.670;18.260;2023-05-10T00:13:31;5.05;;;2.15;;
49051;SDS011;34866;48.670;18.260;2023-05-10T00:15:57;4.05;;;1.90;;
49051;SDS011;34866;48.670;18.260;2023-05-10T00:18:23;5.32;;;1.73;;
49051;SDS011;34866;48.670;18.260;2023-05-10T00:20:48;3.53;;;1.80;;
49051;SDS011;34866;48.670;18.260;2023-05-10T00:23:17;4.40;;;2.47;;
49051;SDS011;34866;48.670;18.260;2023-05-10T00:25:42;5.55;;;2.10;;
49051;SDS011;34866;48.670;18.260;2023-05-10T00:28:08;6.82;;;3.05;;
49051;SDS011;34866;48.670;18.260;2023-05-10T00:30:34;15.25;;;8.35;;
49051;SDS011;34866;48.670;18.260;2023-05-10T00:33:01;13.00;;;6.80;;
49051;SDS011;34866;48.670;18.260;2023-05-10T00:35:52;5.97;;;3.17;;
49051;SDS011;34866;48.670;18.260;2023-05-10T00:38:18;5.38;;;2.03;;
49051;SDS011;34866;48.670;18.260;2023-05-10T00:40:57;3.42;;;1.73;;
49051;SDS011;34866;48.670;18.260;2023-05-10T00:43:22;4.60;;;2.20;;
49051;SDS011;34866;48.670;18.260;2023-05-10T00:45:48;3.03;;;1.40;;
49051;SDS011;34866;48.670;18.260;2023-05-10T00:48:15;7.20;;;2.15;;
49051;SDS011;34866;48.670;18.260;2023-05-10T00:50:41;4.75;;;2.05;;
49051;SDS011;34866;48.670;18.260;2023-05-10T00:53:10;5.35;;;2.20;;
49051;SDS011;34866;48.670;18.260;2023-05-10T00:55:41;3.58;;;1.60;;
49051;SDS011;34866;48.670;18.260;2023-05-10T00:58:07;4.78;;;2.25;;
49051;SDS011;34866;48.670;18.260;2023-05-10T01:00:33;4.28;;;2.05;;
49051;SDS011;34866;48.670;18.260;2023-05-10T01:02:59;4.55;;;1.65;;
49051;SDS011;34866;48.670;18.260;2023-05-10T01:05:26;6.30;;;2.63;;
49051;SDS011;34866;48.670;18.260;2023-05-10T01:08:10;4.75;;;2.13;;
49051;SDS011;34866;48.670;18.260;2023-05-10T01:16:40;3.63;;;1.77;;
49051;SDS011;34866;48.670;18.260;2023-05-10T01:19:17;4.05;;;1.85;;
49051;SDS011;34866;48.670;18.260;2023-05-10T01:34:18;5.45;;;1.88;;
49051;SDS011;34866;48.670;18.260;2023-05-10T01:42:21;5.30;;;2.42;;
49051;SDS011;34866;48.670;18.260;2023-05-10T01:44:58;7.88;;;2.55;;
49051;SDS011;34866;48.670;18.260;2023-05-10T01:47:38;9.13;;;3.53;;
49051;SDS011;34866;48.670;18.260;2023-05-10T01:50:09;8.18;;;3.22;;
49051;SDS011;34866;48.670;18.260;2023-05-10T01:52:44;7.43;;;3.58;;
49051;SDS011;34866;48.670;18.260;2023-05-10T01:55:15;5.22;;;2.50;;
49051;SDS011;34866;48.670;18.260;2023-05-10T01:57:44;5.15;;;2.50;;
49051;SDS011;34866;48.670;18.260;2023-05-10T02:00:13;10.98;;;3.28;;
49051;SDS011;34866;48.670;18.260;2023-05-10T02:02:40;4.50;;;1.88;;
49051;SDS011;34866;48.670;18.260;2023-05-10T02:05:10;7.50;;;2.30;;
49051;SDS011;34866;48.670;18.260;2023-05-10T02:07:38;4.78;;;2.65;;
49051;SDS011;34866;48.670;18.260;2023-05-10T02:10:11;4.40;;;2.35;;
49051;SDS011;34866;48.670;18.260;2023-05-10T02:12:41;5.38;;;2.28;;
49051;SDS011;34866;48.670;18.260;2023-05-10T02:15:08;5.40;;;2.20;;
49051;SDS011;34866;48.670;18.260;2023-05-10T02:17:37;5.55;;;2.53;;
49051;SDS011;34866;48.670;18.260;2023-05-10T02:20:04;7.63;;;2.60;;
49051;SDS011;34866;48.670;18.260;2023-05-10T02:22:32;4.55;;;2.20;;
49051;SDS011;34866;48.670;18.260;2023-05-10T02:25:00;4.82;;;2.35;;
49051;SDS011;34866;48.670;18.260;2023-05-10T02:27:28;6.18;;;2.90;;
49051;SDS011;34866;48.670;18.260;2023-05-10T02:29:58;4.60;;;2.13;;
49051;SDS011;34866;48.670;18.260;2023-05-10T02:32:24;4.90;;;2.80;;
49051;SDS011;34866;48.670;18.260;2023-05-10T02:34:51;6.07;;;3.05;;
49051;SDS011;34866;48.670;18.260;2023-05-10T02:37:21;6.25;;;2.92;;
49051;SDS011;34866;48.670;18.260;2023-05-10T02:39:50;4.97;;;2.80;;
49051;SDS011;34866;48.670;18.260;2023-05-10T02:42:19;6.72;;;2.53;;
49051;SDS011;34866;48.670;18.260;2023-05-10T02:44:50;6.57;;;2.83;;
49051;SDS011;34866;48.670;18.260;2023-05-10T02:47:20;5.53;;;2.92;;
49051;SDS011;34866;48.670;18.260;2023-05-10T02:49:46;6.57;;;2.70;;
49051;SDS011;34866;48.670;18.260;2023-05-10T02:52:12;4.35;;;2.25;;
49051;SDS011;34866;48.670;18.260;2023-05-10T02:54:45;5.70;;;2.67;;
49051;SDS011;34866;48.670;18.260;2023-05-10T02:57:19;4.75;;;2.42;;
49051;SDS011;34866;48.670;18.260;2023-05-10T02:59:52;4.78;;;2.20;;
49051;SDS011;34866;48.670;18.260;2023-05-10T03:02:18;5.28;;;2.50;;
49051;SDS011;34866;48.670;18.260;2023-05-10T03:04:45;4.80;;;2.00;;
49051;SDS011;34866;48.670;18.260;2023-05-10T03:07:10;4.22;;;2.03;;
49051;SDS011;34866;48.670;18.260;2023-05-10T03:09:36;7.93;;;2.65;;
49051;SDS011;34866;48.670;18.260;2023-05-10T03:15:17;6.40;;;2.20;;
49051;SDS011;34866;48.670;18.260;2023-05-10T03:17:57;5.78;;;2.53;;
49051;SDS011;34866;48.670;18.260;2023-05-10T03:23:08;7.60;;;2.40;;
49051;SDS011;34866;48.670;18.260;2023-05-10T03:25:39;8.77;;;3.33;;
49051;SDS011;34866;48.670;18.260;2023-05-10T03:28:06;5.57;;;2.58;;
49051;SDS011;34866;48.670;18.260;2023-05-10T03:30:32;5.60;;;2.63;;
49051;SDS011;34866;48.670;18.260;2023-05-10T03:33:03;7.65;;;2.42;;
49051;SDS011;34866;48.670;18.260;2023-05-10T03:35:30;6.00;;;2.78;;
49051;SDS011;34866;48.670;18.260;2023-05-10T03:37:56;8.45;;;2.90;;
49051;SDS011;34866;48.670;18.260;2023-05-10T03:40:21;5.03;;;2.22;;
49051;SDS011;34866;48.670;18.260;2023-05-10T03:42:54;5.93;;;2.55;;
49051;SDS011;34866;48.670;18.260;2023-05-10T03:45:20;11.35;;;2.30;;
49051;SDS011;34866;48.670;18.260;2023-05-10T03:47:49;5.13;;;2.60;;
49051;SDS011;34866;48.670;18.260;2023-05-10T03:50:17;6.47;;;2.65;;
49051;SDS011;34866;48.670;18.260;2023-05-10T03:52:43;4.60;;;2.20;;
49051;SDS011;34866;48.670;18.260;2023-05-10T03:55:13;7.65;;;2.92;;
49051;SDS011;34866;48.670;18.260;2023-05-10T03:57:38;5.72;;;2.15;;
49051;SDS011;34866;48.670;18.260;2023-05-10T04:00:10;8.73;;;2.92;;
49051;SDS011;34866;48.670;18.260;2023-05-10T04:02:36;12.55;;;2.80;;
49051;SDS011;34866;48.670;18.260;2023-05-10T04:05:02;6.75;;;2.78;;
49051;SDS011;34866;48.670;18.260;2023-05-10T04:07:48;5.10;;;2.17;;
49051;SDS011;34866;48.670;18.260;2023-05-10T04:10:14;6.70;;;2.25;;
49051;SDS011;34866;48.670;18.260;2023-05-10T04:12:41;4.85;;;2.35;;
49051;SDS011;34866;48.670;18.260;2023-05-10T04:15:12;5.65;;;2.60;;
49051;SDS011;34866;48.670;18.260;2023-05-10T04:17:38;7.28;;;3.00;;
49051;SDS011;34866;48.670;18.260;2023-05-10T04:20:05;5.63;;;2.65;;
49051;SDS011;34866;48.670;18.260;2023-05-10T04:22:31;6.47;;;3.03;;
49051;SDS011;34866;48.670;18.260;2023-05-10T04:24:57;7.32;;;2.35;;
49051;SDS011;34866;48.670;18.260;2023-05-10T04:27:23;6.78;;;3.30;;
49051;SDS011;34866;48.670;18.260;2023-05-10T04:29:49;8.82;;;3.28;;
49051;SDS011;34866;48.670;18.260;2023-05-10T04:32:15;6.45;;;2.45;;
49051;SDS011;34866;48.670;18.260;2023-05-10T04:34:42;5.90;;;3.10;;
49051;SDS011;34866;48.670;18.260;2023-05-10T04:37:08;6.43;;;2.85;;
49051;SDS011;34866;48.670;18.260;2023-05-10T04:39:34;6.72;;;3.35;;
49051;SDS011;34866;48.670;18.260;2023-05-10T04:42:00;5.55;;;2.35;;
49051;SDS011;34866;48.670;18.260;2023-05-10T04:44:28;6.35;;;2.90;;
49051;SDS011;34866;48.670;18.260;2023-05-10T04:46:54;7.53;;;3.70;;
49051;SDS011;34866;48.670;18.260;2023-05-10T04:49:20;8.40;;;3.28;;
49051;SDS011;34866;48.670;18.260;2023-05-10T04:51:46;6.15;;;2.80;;
49051;SDS011;34866;48.670;18.260;2023-05-10T04:54:11;5.13;;;2.67;;
49051;SDS011;34866;48.670;18.260;2023-05-10T04:56:37;6.18;;;2.67;;
49051;SDS011;34866;48.670;18.260;2023-05-10T04:59:03;4.72;;;2.78;;
49051;SDS011;34866;48.670;18.260;2023-05-10T05:01:28;7.15;;;2.95;;
49051;SDS011;34866;48.670;18.260;2023-05-10T05:03:54;6.55;;;2.80;;
49051;SDS011;34866;48.670;18.260;2023-05-10T05:06:20;15.30;;;4.43;;
49051;SDS011;34866;48.670;18.260;2023-05-10T05:08:51;5.70;;;3.38;;
49051;SDS011;34866;48.670;18.260;2023-05-10T05:11:17;6.68;;;2.97;;
49051;SDS011;34866;48.670;18.260;2023-05-10T05:13:43;11.20;;;3.30;;
49051;SDS011;34866;48.670;18.260;2023-05-10T05:16:10;5.70;;;2.40;;
49051;SDS011;34866;48.670;18.260;2023-05-10T05:18:39;7.32;;;2.72;;
49051;SDS011;34866;48.670;18.260;2023-05-10T05:21:15;3.75;;;1.83;;
49051;SDS011;34866;48.670;18.260;2023-05-10T05:23:41;7.13;;;1.88;;
49051;SDS011;34866;48.670;18.260;2023-05-10T05:26:08;3.85;;;1.80;;
49051;SDS011;34866;48.670;18.260;2023-05-10T05:28:40;5.00;;;1.80;;
49051;SDS011;34866;48.670;18.260;2023-05-10T05:31:07;5.05;;;2.28;;
49051;SDS011;34866;48.670;18.260;2023-05-10T05:33:33;6.18;;;2.08;;
49051;SDS011;34866;48.670;18.260;2023-05-10T05:36:03;4.07;;;2.00;;
49051;SDS011;34866;48.670;18.260;2023-05-10T05:38:29;6.38;;;2.72;;
49051;SDS011;34866;48.670;18.260;2023-05-10T05:40:55;5.75;;;2.22;;
49051;SDS011;34866;48.670;18.260;2023-05-10T05:43:21;4.38;;;1.98;;
49051;SDS011;34866;48.670;18.260;2023-05-10T05:45:47;6.13;;;3.00;;
49051;SDS011;34866;48.670;18.260;2023-05-10T05:48:12;5.97;;;2.70;;
49051;SDS011;34866;48.670;18.260;2023-05-10T05:50:38;6.97;;;2.72;;
49051;SDS011;34866;48.670;18.260;2023-05-10T05:53:04;7.57;;;2.30;;
49051;SDS011;34866;48.670;18.260;2023-05-10T05:55:29;5.53;;;1.90;;
49051;SDS011;34866;48.670;18.260;2023-05-10T05:58:11;6.30;;;2.28;;
49051;SDS011;34866;48.670;18.260;2023-05-10T06:00:37;2.88;;;1.58;;
49051;SDS011;34866;48.670;18.260;2023-05-10T06:03:02;3.80;;;1.90;;
49051;SDS011;34866;48.670;18.260;2023-05-10T06:05:28;3.83;;;1.85;;
49051;SDS011;34866;48.670;18.260;2023-05-10T06:07:54;3.83;;;2.03;;
49051;SDS011;34866;48.670;18.260;2023-05-10T06:10:19;5.03;;;1.60;;
49051;SDS011;34866;48.670;18.260;2023-05-10T06:12:45;5.80;;;1.83;;
49051;SDS011;34866;48.670;18.260;2023-05-10T06:15:11;4.45;;;1.70;;
49051;SDS011;34866;48.670;18.260;2023-05-10T06:17:37;4.68;;;1.90;;
49051;SDS011;34866;48.670;18.260;2023-05-10T06:20:06;6.78;;;1.60;;
49051;SDS011;34866;48.670;18.260;2023-05-10T06:22:34;7.13;;;1.65;;
49051;SDS011;34866;48.670;18.260;2023-05-10T06:25:12;2.45;;;1.08;;
49051;SDS011;34866;48.670;18.260;2023-05-10T06:27:40;6.72;;;2.00;;
49051;SDS011;34866;48.670;18.260;2023-05-10T06:30:09;5.75;;;1.60;;
49051;SDS011;34866;48.670;18.260;2023-05-10T06:32:38;3.00;;;1.75;;
49051;SDS011;34866;48.670;18.260;2023-05-10T06:35:07;3.42;;;1.67;;
49051;SDS011;34866;48.670;18.260;2023-05-10T06:37:35;3.65;;;1.55;;
49051;SDS011;34866;48.670;18.260;2023-05-10T06:40:03;7.07;;;1.77;;
49051;SDS011;34866;48.670;18.260;2023-05-10T06:42:29;3.10;;;1.45;;
49051;SDS011;34866;48.670;18.260;2023-05-10T06:44:55;5.18;;;1.83;;
49051;SDS011;34866;48.670;18.260;2023-05-10T06:47:20;3.63;;;1.67;;
49051;SDS011;34866;48.670;18.260;2023-05-10T06:49:47;4.35;;;2.00;;
49051;SDS011;34866;48.670;18.260;2023-05-10T06:52:36;6.45;;;2.13;;
49051;SDS011;34866;48.670;18.260;2023-05-10T06:55:08;2.97;;;1.48;;
49051;SDS011;34866;48.670;18.260;2023-05-10T06:57:34;3.78;;;1.67;;
49051;SDS011;34866;48.670;18.260;2023-05-10T07:00:02;3.67;;;1.75;;
49051;SDS011;34866;48.670;18.260;2023-05-10T07:02:31;5.25;;;2.25;;
49051;SDS011;34866;48.670;18.260;2023-05-10T07:04:56;4.18;;;1.70;;
49051;SDS011;34866;48.670;18.260;2023-05-10T07:07:22;4.30;;;1.83;;
49051;SDS011;34866;48.670;18.260;2023-05-10T07:09:49;3.85;;;2.10;;
49051;SDS011;34866;48.670;18.260;2023-05-10T07:12:16;4.03;;;1.63;;
49051;SDS011;34866;48.670;18.260;2023-05-10T07:14:41;3.80;;;1.70;;
49051;SDS011;34866;48.670;18.260;2023-05-10T07:17:10;3.45;;;1.30;;
49051;SDS011;34866;48.670;18.260;2023-05-10T07:19:36;3.90;;;1.60;;
49051;SDS011;34866;48.670;18.260;2023-05-10T07:22:04;4.93;;;2.00;;
49051;SDS011;34866;48.670;18.260;2023-05-10T07:24:31;3.65;;;1.83;;
49051;SDS011;34866;48.670;18.260;2023-05-10T07:26:58;6.03;;;1.77;;
49051;SDS011;34866;48.670;18.260;2023-05-10T07:29:45;3.55;;;1.30;;
49051;SDS011;34866;48.670;18.260;2023-05-10T07:32:11;4.32;;;1.80;;
49051;SDS011;34866;48.670;18.260;2023-05-10T07:34:38;6.57;;;1.33;;
49051;SDS011;34866;48.670;18.260;2023-05-10T07:37:03;6.60;;;1.80;;
49051;SDS011;34866;48.670;18.260;2023-05-10T07:39:36;2.72;;;1.60;;
49051;SDS011;34866;48.670;18.260;2023-05-10T07:42:02;2.78;;;1.30;;
49051;SDS011;34866;48.670;18.260;2023-05-10T07:44:33;4.10;;;1.42;;
49051;SDS011;34866;48.670;18.260;2023-05-10T07:47:24;5.75;;;1.30;;
49051;SDS011;34866;48.670;18.260;2023-05-10T07:49:52;4.05;;;1.73;;
49051;SDS011;34866;48.670;18.260;2023-05-10T07:52:18;4.78;;;1.55;;
49051;SDS011;34866;48.670;18.260;2023-05-10T07:54:44;4.75;;;1.58;;
49051;SDS011;34866;48.670;18.260;2023-05-10T07:57:10;6.80;;;1.60;;
49051;SDS011;34866;48.670;18.260;2023-05-10T07:59:48;3.72;;;1.42;;
49051;SDS011;34866;48.670;18.260;2023-05-10T08:02:16;3.08;;;1.40;;
49051;SDS011;34866;48.670;18.260;2023-05-10T08:04:43;5.72;;;1.40;;
49051;SDS011;34866;48.670;18.260;2023-05-10T08:07:08;5.35;;;1.55;;
49051;SDS011;34866;48.670;18.260;2023-05-10T08:09:34;3.15;;;1.40;;
49051;SDS011;34866;48.670;18.260;2023-05-10T08:12:01;3.78;;;1.65;;
49051;SDS011;34866;48.670;18.260;2023-05-10T08:14:27;3.15;;;1.40;;
49051;SDS011;34866;48.670;18.260;2023-05-10T08:16:54;3.42;;;1.33;;
49051;SDS011;34866;48.670;18.260;2023-05-10T08:19:21;7.50;;;1.70;;
49051;SDS011;34866;48.670;18.260;2023-05-10T08:21:48;4.47;;;1.80;;
49051;SDS011;34866;48.670;18.260;2023-05-10T08:24:13;5.47;;;1.77;;
49051;SDS011;34866;48.670;18.260;2023-05-10T08:26:39;3.30;;;1.50;;
49051;SDS011;34866;48.670;18.260;2023-05-10T08:29:05;6.57;;;1.50;;
49051;SDS011;34866;48.670;18.260;2023-05-10T08:31:30;6.10;;;1.70;;
49051;SDS011;34866;48.670;18.260;2023-05-10T08:33:56;4.35;;;1.60;;
49051;SDS011;34866;48.670;18.260;2023-05-10T08:36:22;3.40;;;1.65;;
49051;SDS011;34866;48.670;18.260;2023-05-10T08:38:52;5.20;;;2.05;;
49051;SDS011;34866;48.670;18.260;2023-05-10T08:41:24;9.30;;;1.88;;
49051;SDS011;34866;48.670;18.260;2023-05-10T08:43:53;2.60;;;1.45;;
49051;SDS011;34866;48.670;18.260;2023-05-10T08:46:20;5.70;;;1.90;;
49051;SDS011;34866;48.670;18.260;2023-05-10T08:48:50;2.47;;;1.30;;
49051;SDS011;34866;48.670;18.260;2023-05-10T08:51:26;4.05;;;2.05;;
49051;SDS011;34866;48.670;18.260;2023-05-10T08:53:54;3.47;;;1.58;;
49051;SDS011;34866;48.670;18.260;2023-05-10T08:56:20;5.60;;;1.77;;
49051;SDS011;34866;48.670;18.260;2023-05-10T08:59:06;2.97;;;1.33;;
49051;SDS011;34866;48.670;18.260;2023-05-10T09:01:34;4.43;;;1.90;;
49051;SDS011;34866;48.670;18.260;2023-05-10T09:04:21;4.88;;;1.92;;
49051;SDS011;34866;48.670;18.260;2023-05-10T09:06:47;5.15;;;1.60;;
49051;SDS011;34866;48.670;18.260;2023-05-10T09:09:31;4.00;;;1.50;;
49051;SDS011;34866;48.670;18.260;2023-05-10T09:12:00;3.45;;;1.42;;
49051;SDS011;34866;48.670;18.260;2023-05-10T09:14:25;3.65;;;1.50;;
49051;SDS011;34866;48.670;18.260;2023-05-10T09:16:52;3.42;;;1.33;;
49051;SDS011;34866;48.670;18.260;2023-05-10T09:19:27;14.55;;;1.67;;
49051;SDS011;34866;48.670;18.260;2023-05-10T09:21:59;4.22;;;1.58;;
49051;SDS011;34866;48.670;18.260;2023-05-10T09:24:26;3.00;;;1.40;;
49051;SDS011;34866;48.670;18.260;2023-05-10T09:26:52;4.70;;;1.40;;
49051;SDS011;34866;48.670;18.260;2023-05-10T09:29:17;2.53;;;1.40;;
49051;SDS011;34866;48.670;18.260;2023-05-10T09:31:47;3.28;;;1.40;;
49051;SDS011;34866;48.670;18.260;2023-05-10T09:34:20;2.67;;;1.35;;
49051;SDS011;34866;48.670;18.260;2023-05-10T09:36:55;3.28;;;1.55;;
49051;SDS011;34866;48.670;18.260;2023-05-10T09:42:20;3.58;;;1.40;;
49051;SDS011;34866;48.670;18.260;2023-05-10T09:44:49;3.10;;;1.40;;
49051;SDS011;34866;48.670;18.260;2023-05-10T09:47:17;3.45;;;1.45;;
49051;SDS011;34866;48.670;18.260;2023-05-10T09:49:44;3.28;;;1.52;;
49051;SDS011;34866;48.670;18.260;2023-05-10T09:52:14;4.18;;;1.63;;
49051;SDS011;34866;48.670;18.260;2023-05-10T09:54:42;2.97;;;1.40;;
49051;SDS011;34866;48.670;18.260;2023-05-10T09:57:22;2.97;;;1.13;;
49051;SDS011;34866;48.670;18.260;2023-05-10T09:59:49;5.57;;;2.00;;
49051;SDS011;34866;48.670;18.260;2023-05-10T10:02:16;3.25;;;1.50;;
49051;SDS011;34866;48.670;18.260;2023-05-10T10:05:10;6.17;;;1.47;;
49051;SDS011;34866;48.670;18.260;2023-05-10T10:07:43;3.17;;;1.50;;
49051;SDS011;34866;48.670;18.260;2023-05-10T10:10:09;5.53;;;1.23;;
49051;SDS011;34866;48.670;18.260;2023-05-10T10:12:37;3.35;;;1.52;;
49051;SDS011;34866;48.670;18.260;2023-05-10T10:15:04;2.75;;;1.30;;
49051;SDS011;34866;48.670;18.260;2023-05-10T10:17:31;3.15;;;1.50;;
49051;SDS011;34866;48.670;18.260;2023-05-10T10:20:00;6.18;;;2.33;;
49051;SDS011;34866;48.670;18.260;2023-05-10T10:22:28;4.30;;;1.38;;
49051;SDS011;34866;48.670;18.260;2023-05-10T10:24:55;4.07;;;1.40;;
49051;SDS011;34866;48.670;18.260;2023-05-10T10:30:35;2.85;;;1.30;;
49051;SDS011;34866;48.670;18.260;2023-05-10T10:36:10;3.72;;;1.52;;
49051;SDS011;34866;48.670;18.260;2023-05-10T10:38:56;2.67;;;1.27;;
49051;SDS011;34866;48.670;18.260;2023-05-10T10:41:29;3.38;;;1.50;;
49051;SDS011;34866;48.670;18.260;2023-05-10T10:47:05;4.20;;;1.30;;
49051;SDS011;34866;48.670;18.260;2023-05-10T10:50:01;2.85;;;1.40;;
49051;SDS011;34866;48.670;18.260;2023-05-10T10:52:35;4.03;;;1.70;;
49051;SDS011;34866;48.670;18.260;2023-05-10T10:58:32;3.15;;;1.45;;
49051;SDS011;34866;48.670;18.260;2023-05-10T11:01:17;3.40;;;1.60;;
49051;SDS011;34866;48.670;18.260;2023-05-10T11:06:35;3.83;;;1.50;;
49051;SDS011;34866;48.670;18.260;2023-05-10T11:09:41;4.65;;;1.77;;
49051;SDS011;34866;48.670;18.260;2023-05-10T11:12:09;4.18;;;1.80;;
49051;SDS011;34866;48.670;18.260;2023-05-10T11:14:35;3.22;;;1.40;;
49051;SDS011;34866;48.670;18.260;2023-05-10T11:17:01;3.53;;;1.60;;
49051;SDS011;34866;48.670;18.260;2023-05-10T11:20:01;4.00;;;1.70;;
49051;SDS011;34866;48.670;18.260;2023-05-10T11:22:50;6.95;;;1.75;;
49051;SDS011;34866;48.670;18.260;2023-05-10T11:26:01;3.13;;;1.48;;
49051;SDS011;34866;48.670;18.260;2023-05-10T11:28:11;5.20;;;1.98;;
49051;SDS011;34866;48.670;18.260;2023-05-10T11:30:40;3.30;;;1.20;;
49051;SDS011;34866;48.670;18.260;2023-05-10T11:33:08;4.80;;;1.80;;
49051;SDS011;34866;48.670;18.260;2023-05-10T11:35:38;3.42;;;1.40;;
49051;SDS011;34866;48.670;18.260;2023-05-10T11:38:17;3.70;;;1.50;;
49051;SDS011;34866;48.670;18.260;2023-05-10T11:40:43;3.30;;;1.33;;
49051;SDS011;34866;48.670;18.260;2023-05-10T11:43:09;4.05;;;1.50;;
49051;SDS011;34866;48.670;18.260;2023-05-10T11:45:35;2.80;;;1.35;;
49051;SDS011;34866;48.670;18.260;2023-05-10T11:48:05;3.33;;;1.40;;
49051;SDS011;34866;48.670;18.260;2023-05-10T11:50:30;3.15;;;1.90;;
49051;SDS011;34866;48.670;18.260;2023-05-10T11:52:57;3.22;;;1.10;;
49051;SDS011;34866;48.670;18.260;2023-05-10T11:55:43;3.22;;;1.40;;
49051;SDS011;34866;48.670;18.260;2023-05-10T11:58:10;2.67;;;1.15;;
49051;SDS011;34866;48.670;18.260;2023-05-10T12:00:38;3.55;;;1.23;;
49051;SDS011;34866;48.670;18.260;2023-05-10T12:03:04;5.05;;;1.50;;
49051;SDS011;34866;48.670;18.260;2023-05-10T12:05:32;3.17;;;1.30;;
49051;SDS011;34866;48.670;18.260;2023-05-10T12:08:12;2.95;;;1.42;;
49051;SDS011;34866;48.670;18.260;2023-05-10T12:10:45;3.03;;;1.30;;
49051;SDS011;34866;48.670;18.260;2023-05-10T12:13:13;6.28;;;1.30;;
49051;SDS011;34866;48.670;18.260;2023-05-10T12:15:40;3.20;;;1.50;;
49051;SDS011;34866;48.670;18.260;2023-05-10T12:18:27;3.08;;;1.40;;
49051;SDS011;34866;48.670;18.260;2023-05-10T12:20:53;3.08;;;1.23;;
49051;SDS011;34866;48.670;18.260;2023-05-10T12:23:20;2.72;;;1.20;;
49051;SDS011;34866;48.670;18.260;2023-05-10T12:25:45;4.38;;;1.40;;
49051;SDS011;34866;48.670;18.260;2023-05-10T12:28:32;4.50;;;1.58;;
49051;SDS011;34866;48.670;18.260;2023-05-10T12:31:01;2.65;;;1.10;;
49051;SDS011;34866;48.670;18.260;2023-05-10T12:33:27;2.45;;;1.23;;
49051;SDS011;34866;48.670;18.260;2023-05-10T12:36:09;3.20;;;1.23;;
49051;SDS011;34866;48.670;18.260;2023-05-10T12:38:36;4.38;;;1.33;;
49051;SDS011;34866;48.670;18.260;2023-05-10T12:41:07;2.63;;;1.20;;
49051;SDS011;34866;48.670;18.260;2023-05-10T12:43:51;6.03;;;1.10;;
49051;SDS011;34866;48.670;18.260;2023-05-10T12:46:17;3.15;;;1.10;;
49051;SDS011;34866;48.670;18.260;2023-05-10T12:48:44;3.58;;;1.55;;
49051;SDS011;34866;48.670;18.260;2023-05-10T12:51:19;6.30;;;1.83;;
49051;SDS011;34866;48.670;18.260;2023-05-10T12:53:47;3.75;;;1.50;;
49051;SDS011;34866;48.670;18.260;2023-05-10T12:56:13;3.75;;;1.70;;
49051;SDS011;34866;48.670;18.260;2023-05-10T12:58:38;2.90;;;1.20;;
49051;SDS011;34866;48.670;18.260;2023-05-10T13:01:10;2.88;;;1.38;;
49051;SDS011;34866;48.670;18.260;2023-05-10T13:03:36;2.67;;;1.20;;
49051;SDS011;34866;48.670;18.260;2023-05-10T13:06:01;3.25;;;1.48;;
49051;SDS011;34866;48.670;18.260;2023-05-10T13:08:32;5.05;;;1.60;;
49051;SDS011;34866;48.670;18.260;2023-05-10T13:11:01;2.70;;;1.40;;
49051;SDS011;34866;48.670;18.260;2023-05-10T13:13:27;3.65;;;1.50;;
49051;SDS011;34866;48.670;18.260;2023-05-10T13:15:53;2.75;;;1.17;;
49051;SDS011;34866;48.670;18.260;2023-05-10T13:18:19;2.83;;;1.17;;
49051;SDS011;34866;48.670;18.260;2023-05-10T13:20:45;4.65;;;1.27;;
49051;SDS011;34866;48.670;18.260;2023-05-10T13:23:11;3.05;;;1.30;;
49051;SDS011;34866;48.670;18.260;2023-05-10T13:25:36;2.92;;;1.25;;
49051;SDS011;34866;48.670;18.260;2023-05-10T13:28:05;3.83;;;1.50;;
49051;SDS011;34866;48.670;18.260;2023-05-10T13:30:31;2.67;;;1.30;;
49051;SDS011;34866;48.670;18.260;2023-05-10T13:32:58;1.92;;;1.05;;
49051;SDS011;34866;48.670;18.260;2023-05-10T13:35:35;3.08;;;1.30;;
49051;SDS011;34866;48.670;18.260;2023-05-10T13:38:01;3.22;;;1.38;;
49051;SDS011;34866;48.670;18.260;2023-05-10T13:40:28;9.32;;;1.45;;
49051;SDS011;34866;48.670;18.260;2023-05-10T13:42:54;2.25;;;1.08;;
49051;SDS011;34866;48.670;18.260;2023-05-10T13:45:25;3.90;;;1.52;;
49051;SDS011;34866;48.670;18.260;2023-05-10T13:47:50;3.53;;;1.20;;
49051;SDS011;34866;48.670;18.260;2023-05-10T13:50:20;3.70;;;1.30;;
49051;SDS011;34866;48.670;18.260;2023-05-10T13:53:30;3.03;;;1.30;;
49051;SDS011;34866;48.670;18.260;2023-05-10T13:55:57;2.50;;;1.17;;
49051;SDS011;34866;48.670;18.260;2023-05-10T13:58:42;2.88;;;1.15;;
49051;SDS011;34866;48.670;18.260;2023-05-10T14:01:08;4.22;;;1.23;;
49051;SDS011;34866;48.670;18.260;2023-05-10T14:03:39;3.03;;;1.17;;
49051;SDS011;34866;48.670;18.260;2023-05-10T14:06:06;7.88;;;1.20;;
49051;SDS011;34866;48.670;18.260;2023-05-10T14:08:34;3.03;;;1.20;;
49051;SDS011;34866;48.670;18.260;2023-05-10T14:11:06;2.08;;;0.90;;
49051;SDS011;34866;48.670;18.260;2023-05-10T14:13:32;2.05;;;0.93;;
49051;SDS011;34866;48.670;18.260;2023-05-10T14:15:59;2.40;;;1.10;;
49051;SDS011;34866;48.670;18.260;2023-05-10T14:18:46;3.15;;;1.10;;
49051;SDS011;34866;48.670;18.260;2023-05-10T14:21:19;3.97;;;1.45;;
49051;SDS011;34866;48.670;18.260;2023-05-10T14:24:05;2.67;;;1.02;;
49051;SDS011;34866;48.670;18.260;2023-05-10T14:26:32;4.30;;;1.20;;
49051;SDS011;34866;48.670;18.260;2023-05-10T14:29:00;2.97;;;1.23;;
49051;SDS011;34866;48.670;18.260;2023-05-10T14:31:31;5.47;;;1.40;;
49051;SDS011;34866;48.670;18.260;2023-05-10T14:33:57;2.50;;;1.10;;
49051;SDS011;34866;48.670;18.260;2023-05-10T14:36:22;3.03;;;1.20;;
49051;SDS011;34866;48.670;18.260;2023-05-10T14:38:48;2.67;;;1.10;;
49051;SDS011;34866;48.670;18.260;2023-05-10T14:41:15;3.55;;;1.33;;
49051;SDS011;34866;48.670;18.260;2023-05-10T14:43:42;3.00;;;1.30;;
49051;SDS011;34866;48.670;18.260;2023-05-10T14:46:08;3.00;;;1.10;;
49051;SDS011;34866;48.670;18.260;2023-05-10T14:48:34;2.35;;;1.10;;
49051;SDS011;34866;48.670;18.260;2023-05-10T14:51:00;3.17;;;1.30;;
49051;SDS011;34866;48.670;18.260;2023-05-10T14:53:25;2.88;;;1.20;;
49051;SDS011;34866;48.670;18.260;2023-05-10T14:55:52;4.38;;;1.20;;
49051;SDS011;34866;48.670;18.260;2023-05-10T14:58:18;3.20;;;1.30;;
49051;SDS011;34866;48.670;18.260;2023-05-10T15:00:45;2.38;;;1.17;;
49051;SDS011;34866;48.670;18.260;2023-05-10T15:03:14;2.55;;;1.23;;
49051;SDS011;34866;48.670;18.260;2023-05-10T15:05:41;3.58;;;1.55;;
49051;SDS011;34866;48.670;18.260;2023-05-10T15:08:07;6.38;;;2.03;;
49051;SDS011;34866;48.670;18.260;2023-05-10T15:10:35;2.42;;;1.40;;
49051;SDS011;34866;48.670;18.260;2023-05-10T15:13:04;4.30;;;1.25;;
49051;SDS011;34866;48.670;18.260;2023-05-10T15:15:32;3.42;;;1.40;;
49051;SDS011;34866;48.670;18.260;2023-05-10T15:17:59;10.30;;;1.52;;
49051;SDS011;34866;48.670;18.260;2023-05-10T15:20:25;2.55;;;1.25;;
49051;SDS011;34866;48.670;18.260;2023-05-10T15:22:51;6.07;;;1.35;;
49051;SDS011;34866;48.670;18.260;2023-05-10T15:25:17;4.20;;;1.55;;
49051;SDS011;34866;48.670;18.260;2023-05-10T15:27:43;2.40;;;1.17;;
49051;SDS011;34866;48.670;18.260;2023-05-10T15:30:09;2.50;;;1.08;;
49051;SDS011;34866;48.670;18.260;2023-05-10T15:32:35;3.17;;;1.35;;
49051;SDS011;34866;48.670;18.260;2023-05-10T15:35:02;2.65;;;1.23;;